createdAt,value
2019-06-08T00:00:01.626Z,56.90
2019-06-08T00:02:29.023Z,57.20
2019-06-08T00:04:56.360Z,56.90
2019-06-08T00:07:23.712Z,56.90
2019-06-08T00:09:51.085Z,57.00
2019-06-08T00:12:18.988Z,57.00
2019-06-08T00:14:46.608Z,56.90
2019-06-08T00:17:29.359Z,56.70
2019-06-08T00:19:43.288Z,57.30
2019-06-08T00:22:11.421Z,56.90
2019-06-08T00:24:38.874Z,57.10
2019-06-08T00:27:06.326Z,57.20
2019-06-08T00:29:33.682Z,57.30
2019-06-08T00:32:01.149Z,57.00
2019-06-08T00:34:28.861Z,57.30
2019-06-08T00:36:56.297Z,57.90
2019-06-08T00:39:25.000Z,57.70
2019-06-08T00:41:52.635Z,58.00
2019-06-08T00:44:21.249Z,57.90
2019-06-08T00:46:48.788Z,57.80
2019-06-08T00:49:16.431Z,57.80
2019-06-08T00:51:43.977Z,58.30
2019-06-08T00:54:11.395Z,58.30
2019-06-08T00:56:38.730Z,58.20
2019-06-08T00:59:06.082Z,58.20
2019-06-08T01:01:33.420Z,58.10
2019-06-08T01:04:00.837Z,58.20
2019-06-08T01:06:29.747Z,58.80
2019-06-08T01:08:57.282Z,58.20
2019-06-08T01:11:24.796Z,58.20
2019-06-08T01:13:52.761Z,58.70
2019-06-08T01:16:20.937Z,58.90
2019-06-08T01:18:48.413Z,58.30
2019-06-08T01:21:16.063Z,58.80
2019-06-08T01:23:43.551Z,59.00
2019-06-08T01:26:10.878Z,59.20
2019-06-08T01:28:38.332Z,59.40
2019-06-08T01:31:05.738Z,59.10
2019-06-08T01:33:33.080Z,59.50
2019-06-08T01:36:00.556Z,59.60
2019-06-08T01:38:29.152Z,60.20
2019-06-08T01:40:56.594Z,61.00
2019-06-08T01:43:23.926Z,60.30
2019-06-08T01:45:51.345Z,61.10
2019-06-08T01:48:20.553Z,61.30
2019-06-08T01:50:48.174Z,61.20
2019-06-08T01:53:15.551Z,61.00
2019-06-08T01:55:42.982Z,60.50
2019-06-08T01:58:10.271Z,60.70
2019-06-08T02:00:41.096Z,61.00
2019-06-08T02:03:06.877Z,61.60
2019-06-08T02:05:34.554Z,60.60
2019-06-08T02:08:02.112Z,60.80
2019-06-08T02:10:30.757Z,61.80
2019-06-08T02:12:58.291Z,61.70
2019-06-08T02:15:27.094Z,61.30
2019-06-08T02:17:54.695Z,62.70
2019-06-08T02:20:22.198Z,62.70
2019-06-08T02:22:49.507Z,62.40
2019-06-08T02:25:17.084Z,62.00
2019-06-08T02:27:44.842Z,61.90
2019-06-08T02:30:13.311Z,61.50
2019-06-08T02:32:40.731Z,61.30
2019-06-08T02:35:08.807Z,61.90
2019-06-08T02:37:38.344Z,62.50
2019-06-08T02:40:05.921Z,62.40
2019-06-08T02:42:35.302Z,62.80
2019-06-08T02:45:03.411Z,62.80
2019-06-08T02:47:32.431Z,63.20
2019-06-08T02:49:59.959Z,63.20
2019-06-08T02:52:29.940Z,62.50
2019-06-08T02:54:58.818Z,62.50
2019-06-08T02:57:29.155Z,62.90
2019-06-08T03:00:00.037Z,63.40
2019-06-08T03:02:29.632Z,63.60
2019-06-08T03:04:59.081Z,64.10
2019-06-08T03:07:30.368Z,63.70
2019-06-08T03:09:59.497Z,65.40
2019-06-08T03:12:27.265Z,64.70
2019-06-08T03:14:54.846Z,65.70
2019-06-08T03:17:22.636Z,66.30
2019-06-08T03:19:49.943Z,66.90
2019-06-08T03:22:17.603Z,67.60
2019-06-08T03:24:44.934Z,69.30
2019-06-08T03:27:12.331Z,69.00
2019-06-08T03:29:41.576Z,70.00
2019-06-08T03:32:08.893Z,69.20
2019-06-08T03:34:45.786Z,71.30
2019-06-08T03:37:05.422Z,71.00
2019-06-08T03:39:34.980Z,71.10
2019-06-08T03:42:02.394Z,71.10
2019-06-08T03:44:29.811Z,70.20
2019-06-08T03:46:57.127Z,70.20
2019-06-08T03:49:40.344Z,70.20
2019-06-08T03:51:54.070Z,70.10
2019-06-08T03:54:21.481Z,70.50
2019-06-08T03:56:49.205Z,70.30
2019-06-08T03:59:16.633Z,69.70
2019-06-08T04:01:45.990Z,69.10
2019-06-08T04:04:13.632Z,69.50
2019-06-08T04:06:41.498Z,69.80
2019-06-08T04:09:09.060Z,69.70
2019-06-08T04:11:37.716Z,69.10
2019-06-08T04:14:05.214Z,69.00
2019-06-08T04:16:32.642Z,69.60
2019-06-08T04:18:59.925Z,70.20
2019-06-08T04:21:27.224Z,69.50
2019-06-08T04:23:54.491Z,69.40
2019-06-08T04:26:21.940Z,69.80
2019-06-08T04:28:49.744Z,69.90
2019-06-08T04:31:17.365Z,69.60
2019-06-08T04:33:46.316Z,69.70
2019-06-08T04:36:13.933Z,70.50
2019-06-08T04:38:41.364Z,69.70
2019-06-08T04:41:09.278Z,69.40
2019-06-08T04:43:38.322Z,69.80
2019-06-08T04:46:05.891Z,69.30
2019-06-08T04:48:33.299Z,69.80
2019-06-08T04:51:00.703Z,68.90
2019-06-08T04:53:28.129Z,69.00
2019-06-08T04:55:55.569Z,69.10
2019-06-08T04:58:22.976Z,68.30
2019-06-08T05:00:50.950Z,68.30
2019-06-08T05:03:18.576Z,68.30
2019-06-08T05:05:47.587Z,67.60
2019-06-08T05:08:15.544Z,67.40
2019-06-08T05:10:43.260Z,67.30
2019-06-08T05:13:10.869Z,67.10
2019-06-08T05:15:39.129Z,67.70
2019-06-08T05:18:06.611Z,67.40
2019-06-08T05:20:38.944Z,67.50
2019-06-08T05:23:03.361Z,67.20
2019-06-08T05:25:30.747Z,66.90
2019-06-08T05:27:58.101Z,66.90
2019-06-08T05:30:28.065Z,66.50
2019-06-08T05:32:55.066Z,67.20
2019-06-08T05:35:22.430Z,66.70
2019-06-08T05:37:49.861Z,66.70
2019-06-08T05:40:17.935Z,66.90
2019-06-08T05:42:45.719Z,67.20
2019-06-08T05:45:13.475Z,66.50
2019-06-08T05:47:41.802Z,66.10
2019-06-08T05:50:09.824Z,65.10
2019-06-08T05:52:37.235Z,64.60
2019-06-08T05:55:04.878Z,64.40
2019-06-08T05:57:32.198Z,64.00
2019-06-08T05:59:59.541Z,64.30
2019-06-08T06:02:26.984Z,64.50
2019-06-08T06:04:54.307Z,64.60
2019-06-08T06:07:21.715Z,64.50
2019-06-08T06:09:49.049Z,64.30
2019-06-08T06:12:16.319Z,63.60
2019-06-08T06:14:44.664Z,63.70
2019-06-08T06:17:12.413Z,64.10
2019-06-08T06:19:40.966Z,64.00
2019-06-08T06:22:08.550Z,62.80
2019-06-08T06:24:35.935Z,63.30
2019-06-08T06:27:03.470Z,62.70
2019-06-08T06:29:30.800Z,62.30
2019-06-08T06:31:58.155Z,61.80
2019-06-08T06:34:25.546Z,62.60
2019-06-08T06:36:52.955Z,62.20
2019-06-08T06:39:20.275Z,62.10
2019-06-08T06:41:48.029Z,62.60
2019-06-08T06:44:15.350Z,61.80
2019-06-08T06:46:43.899Z,61.80
2019-06-08T06:49:11.365Z,61.80
2019-06-08T06:51:38.801Z,62.60
2019-06-08T06:54:06.128Z,61.50
2019-06-08T06:56:33.604Z,60.50
2019-06-08T06:59:00.917Z,59.50
2019-06-08T07:01:28.799Z,60.00
2019-06-08T07:03:56.298Z,59.00
2019-06-08T07:06:23.739Z,58.80
2019-06-08T07:08:52.364Z,57.90
2019-06-08T07:11:19.939Z,59.40
2019-06-08T07:13:47.267Z,58.80
2019-06-08T07:16:18.475Z,58.80
2019-06-08T07:18:43.926Z,58.00
2019-06-08T07:21:11.719Z,57.50
2019-06-08T07:23:39.109Z,57.80
2019-06-08T07:26:09.351Z,58.30
2019-06-08T07:28:36.619Z,58.40
2019-06-08T07:31:03.977Z,58.80
2019-06-08T07:33:31.635Z,58.80
2019-06-08T07:35:59.885Z,57.40
2019-06-08T07:38:27.630Z,57.80
2019-06-08T07:40:58.578Z,57.60
2019-06-08T07:43:24.249Z,57.50
2019-06-08T07:45:51.968Z,57.50
2019-06-08T07:48:19.347Z,58.10
2019-06-08T07:50:48.250Z,57.30
2019-06-08T07:53:15.976Z,56.50
2019-06-08T07:55:45.364Z,55.90
2019-06-08T07:58:13.024Z,55.50
2019-06-08T08:00:40.407Z,55.60
2019-06-08T08:03:07.825Z,55.30
2019-06-08T08:05:35.167Z,54.80
2019-06-08T08:08:02.506Z,52.40
2019-06-08T08:10:29.839Z,51.20
2019-06-08T08:12:57.196Z,52.00
2019-06-08T08:15:24.527Z,51.60
2019-06-08T08:17:52.592Z,50.30
2019-06-08T08:20:21.342Z,49.60
2019-06-08T08:22:52.712Z,49.40
2019-06-08T08:25:18.358Z,49.80
2019-06-08T08:27:47.869Z,50.00
2019-06-08T08:30:17.751Z,49.80
2019-06-08T08:32:44.786Z,50.50
2019-06-08T08:35:12.742Z,50.90
2019-06-08T08:37:40.063Z,50.40
2019-06-08T08:40:07.907Z,50.80
2019-06-08T08:42:38.294Z,50.80
2019-06-08T08:45:08.661Z,50.40
2019-06-08T08:47:34.995Z,49.50
2019-06-08T08:50:02.405Z,50.10
2019-06-08T08:52:36.921Z,48.30
2019-06-08T08:55:00.376Z,49.70
2019-06-08T08:57:28.919Z,48.30
2019-06-08T09:00:00.999Z,47.20
2019-06-08T09:02:27.626Z,47.00
2019-06-08T09:04:55.249Z,47.00
2019-06-08T09:07:22.863Z,48.30
2019-06-08T09:09:51.942Z,47.20
2019-06-08T09:12:19.546Z,48.00
2019-06-08T09:14:47.939Z,49.00
2019-06-08T09:17:17.915Z,47.50
2019-06-08T09:19:44.937Z,45.90
2019-06-08T09:22:12.299Z,45.50
2019-06-08T09:24:39.676Z,46.70
2019-06-08T09:27:07.991Z,45.80
2019-06-08T09:29:38.565Z,46.50
2019-06-08T09:32:04.993Z,45.80
2019-06-08T09:34:32.529Z,45.00
2019-06-08T09:37:02.743Z,45.20
2019-06-08T09:39:29.556Z,45.60
2019-06-08T09:42:00.450Z,45.60
2019-06-08T09:44:28.090Z,45.60
2019-06-08T09:46:58.730Z,44.50
2019-06-08T09:49:24.898Z,44.30
2019-06-08T09:51:53.806Z,45.00
2019-06-08T09:54:21.569Z,44.40
2019-06-08T09:56:49.436Z,45.90
2019-06-08T09:59:18.593Z,44.30
2019-06-08T10:01:46.870Z,46.50
2019-06-08T10:04:14.436Z,45.20
2019-06-08T10:06:42.295Z,44.00
2019-06-08T10:09:10.309Z,43.30
2019-06-08T10:11:38.120Z,45.40
2019-06-08T10:14:11.335Z,43.30
2019-06-08T10:16:38.010Z,43.00
2019-06-08T10:19:07.079Z,43.60
2019-06-08T10:21:33.791Z,42.20
2019-06-08T10:24:04.396Z,43.50
2019-06-08T10:26:30.534Z,43.40
2019-06-08T10:29:00.248Z,43.70
2019-06-08T10:31:38.352Z,42.40
2019-06-08T10:34:00.569Z,41.30
2019-06-08T10:36:28.396Z,41.00
2019-06-08T10:38:56.724Z,41.40
2019-06-08T10:41:27.633Z,41.10
2019-06-08T10:43:54.198Z,42.30
2019-06-08T10:46:21.738Z,41.40
2019-06-08T10:48:49.758Z,42.40
2019-06-08T10:51:18.322Z,40.90
2019-06-08T10:53:51.938Z,39.50
2019-06-08T10:56:15.386Z,40.30
2019-06-08T10:58:43.213Z,40.20
2019-06-08T11:01:12.689Z,40.40
2019-06-08T11:03:39.964Z,39.20
2019-06-08T11:06:11.366Z,39.80
2019-06-08T11:08:38.828Z,39.20
2019-06-08T11:11:09.793Z,38.30
2019-06-08T11:13:35.338Z,37.00
2019-06-08T11:16:05.345Z,37.90
2019-06-08T11:18:32.421Z,37.10
2019-06-08T11:21:01.901Z,38.40
2019-06-08T11:23:29.246Z,37.30
2019-06-08T11:26:02.958Z,37.20
2019-06-08T11:28:28.289Z,35.60
2019-06-08T11:31:01.773Z,36.40
2019-06-08T11:33:30.489Z,36.60
2019-06-08T11:36:02.981Z,34.90
2019-06-08T11:38:28.880Z,33.40
2019-06-08T11:40:57.935Z,33.50
2019-06-08T11:43:28.554Z,33.40
2019-06-08T11:45:55.277Z,32.00
2019-06-08T11:48:23.734Z,32.00
2019-06-08T11:50:51.770Z,30.30
2019-06-08T11:53:19.371Z,27.70
2019-06-08T11:55:50.747Z,26.90
2019-06-08T11:58:22.541Z,25.60
2019-06-08T12:01:10.048Z,24.60
2019-06-08T12:03:38.553Z,23.80
2019-06-08T12:06:06.895Z,21.50
2019-06-08T12:08:35.086Z,19.50
2019-06-08T12:11:04.237Z,19.60
2019-06-08T12:13:32.639Z,17.10
2019-06-08T12:16:00.126Z,17.30
2019-06-08T12:18:27.818Z,17.00
2019-06-08T12:20:55.785Z,16.10
2019-06-08T12:23:23.206Z,15.90
2019-06-08T12:25:52.521Z,15.80
2019-06-08T12:28:20.073Z,14.30
2019-06-08T12:30:47.991Z,14.90
2019-06-08T12:33:18.811Z,14.70
2019-06-08T12:35:47.691Z,14.90
2019-06-08T12:38:16.501Z,14.80
2019-06-08T12:40:44.612Z,14.50
2019-06-08T12:43:13.230Z,13.80
2019-06-08T12:45:41.593Z,13.90
2019-06-08T12:48:15.739Z,13.30
2019-06-08T12:50:38.922Z,14.00
2019-06-08T12:53:10.321Z,13.60
2019-06-08T12:55:37.731Z,13.30
2019-06-08T12:58:08.134Z,12.90
2019-06-08T13:00:35.017Z,13.30
2019-06-08T13:03:02.375Z,13.00
2019-06-08T13:05:29.845Z,13.90
2019-06-08T13:07:58.948Z,14.50
2019-06-08T13:10:27.758Z,15.00
2019-06-08T13:12:58.185Z,14.50
2019-06-08T13:15:44.572Z,14.50
2019-06-08T13:18:13.614Z,14.10
2019-06-08T13:20:41.262Z,14.30
2019-06-08T13:23:10.049Z,13.40
2019-06-08T13:25:43.437Z,14.20
2019-06-08T13:28:08.799Z,14.50
2019-06-08T13:30:38.830Z,14.80
2019-06-08T13:33:07.916Z,16.20
2019-06-08T13:35:35.386Z,16.60
2019-06-08T13:38:02.872Z,15.80
2019-06-08T13:40:30.326Z,15.50
2019-06-08T13:42:58.305Z,15.00
2019-06-08T13:45:27.831Z,14.20
2019-06-08T13:47:55.087Z,15.30
2019-06-08T13:50:23.993Z,14.80
2019-06-08T13:52:51.742Z,14.80
2019-06-08T13:55:36.486Z,15.30
2019-06-08T13:57:49.153Z,16.00
2019-06-08T14:00:21.021Z,16.30
2019-06-08T14:02:48.340Z,16.20
2019-06-08T14:05:24.789Z,16.30
2019-06-08T14:07:50.218Z,17.40
2019-06-08T14:10:22.939Z,17.60
2019-06-08T14:12:51.418Z,18.60
2019-06-08T14:15:21.410Z,18.60
2019-06-08T14:17:48.256Z,19.00
2019-06-08T14:20:22.724Z,19.70
2019-06-08T14:22:50.528Z,17.90
2019-06-08T14:25:20.098Z,17.10
2019-06-08T14:27:47.685Z,17.00
2019-06-08T14:30:17.851Z,16.70
2019-06-08T14:32:45.010Z,15.60
2019-06-08T14:35:12.389Z,15.90
2019-06-08T14:37:39.836Z,16.30
2019-06-08T14:40:08.148Z,16.30
2019-06-08T14:42:38.214Z,15.90
2019-06-08T14:45:07.500Z,16.20
2019-06-08T14:47:34.309Z,17.60
2019-06-08T14:50:02.119Z,16.90
2019-06-08T14:52:30.872Z,16.90
2019-06-08T14:54:58.691Z,17.70
2019-06-08T14:57:28.192Z,16.20
2019-06-08T14:59:57.252Z,16.70
2019-06-08T15:02:26.003Z,15.40
2019-06-08T15:04:53.927Z,14.70
2019-06-08T15:07:23.361Z,14.40
2019-06-08T15:09:50.624Z,14.00
2019-06-08T15:12:19.353Z,15.60
2019-06-08T15:14:47.695Z,15.60
2019-06-08T15:17:15.388Z,15.70
2019-06-08T15:19:42.740Z,14.60
2019-06-08T15:22:11.287Z,16.20
2019-06-08T15:24:38.896Z,14.30
2019-06-08T15:27:07.893Z,14.60
2019-06-08T15:29:37.702Z,14.10
2019-06-08T15:32:04.834Z,13.70
2019-06-08T15:34:33.255Z,14.00
2019-06-08T15:37:00.922Z,13.90
2019-06-08T15:39:30.732Z,13.40
2019-06-08T15:42:00.125Z,15.40
2019-06-08T15:44:29.091Z,16.20
2019-06-08T15:46:58.509Z,18.00
2019-06-08T15:49:28.519Z,19.50
2019-06-08T15:51:55.120Z,20.30
2019-06-08T15:54:22.758Z,21.40
2019-06-08T15:56:52.239Z,21.10
2019-06-08T15:59:20.105Z,22.20
2019-06-08T16:01:47.436Z,25.30
2019-06-08T16:04:14.850Z,25.20
2019-06-08T16:06:42.253Z,25.20
2019-06-08T16:09:09.748Z,26.40
2019-06-08T16:11:37.145Z,26.50
2019-06-08T16:14:04.805Z,26.70
2019-06-08T16:16:33.384Z,27.90
2019-06-08T16:19:01.124Z,28.60
2019-06-08T16:21:29.613Z,28.30
2019-06-08T16:23:57.265Z,28.70
2019-06-08T16:26:25.589Z,29.40
2019-06-08T16:28:53.208Z,29.10
2019-06-08T16:31:20.732Z,29.20
2019-06-08T16:33:48.199Z,28.20
2019-06-08T16:36:15.583Z,28.70
2019-06-08T16:38:43.060Z,29.20
2019-06-08T16:41:10.823Z,30.70
2019-06-08T16:43:39.315Z,30.80
2019-06-08T16:46:06.911Z,28.60
2019-06-08T16:48:34.609Z,29.00
2019-06-08T16:51:02.258Z,29.70
2019-06-08T16:53:29.844Z,29.50
2019-06-08T16:55:57.585Z,30.80
2019-06-08T16:58:25.002Z,30.50
2019-06-08T17:00:52.432Z,30.30
2019-06-08T17:03:19.967Z,32.00
2019-06-08T17:05:47.352Z,30.40
2019-06-08T17:08:14.723Z,29.80
2019-06-08T17:10:42.519Z,30.70
2019-06-08T17:13:11.586Z,30.50
2019-06-08T17:15:40.412Z,31.10
2019-06-08T17:18:08.289Z,32.30
2019-06-08T17:20:36.318Z,31.70
2019-06-08T17:23:03.854Z,31.10
2019-06-08T17:25:32.318Z,30.50
2019-06-08T17:27:59.900Z,32.50
2019-06-08T17:30:27.578Z,30.80
2019-06-08T17:32:54.992Z,33.00
2019-06-08T17:35:22.400Z,33.00
2019-06-08T17:37:49.831Z,31.80
2019-06-08T17:40:18.016Z,32.20
2019-06-08T17:42:45.513Z,31.80
2019-06-08T17:45:13.013Z,33.10
2019-06-08T17:47:40.720Z,33.30
2019-06-08T17:50:08.887Z,33.40
2019-06-08T17:52:37.054Z,33.20
2019-06-08T17:55:04.867Z,33.10
2019-06-08T17:57:43.492Z,31.80
2019-06-08T18:00:01.555Z,31.70
2019-06-08T18:02:31.277Z,32.30
2019-06-08T18:04:58.273Z,32.60
2019-06-08T18:07:27.734Z,33.00
2019-06-08T18:09:57.540Z,34.00
2019-06-08T18:12:27.001Z,32.30
2019-06-08T18:14:54.070Z,35.10
2019-06-08T18:17:22.014Z,33.60
2019-06-08T18:19:49.866Z,35.70
2019-06-08T18:22:18.702Z,36.40
2019-06-08T18:24:47.899Z,36.80
2019-06-08T18:27:18.123Z,36.40
2019-06-08T18:29:46.134Z,36.80
2019-06-08T18:32:14.201Z,37.80
2019-06-08T18:34:43.231Z,37.30
2019-06-08T18:37:11.653Z,38.00
2019-06-08T18:39:41.713Z,38.20
2019-06-08T18:42:08.883Z,38.10
2019-06-08T18:44:40.754Z,39.10
2019-06-08T18:47:07.529Z,38.80
2019-06-08T18:49:35.261Z,38.90
2019-06-08T18:52:03.232Z,38.90
2019-06-08T18:54:31.068Z,39.00
2019-06-08T18:56:58.543Z,37.70
2019-06-08T18:59:28.616Z,38.60
2019-06-08T19:01:55.783Z,38.90
2019-06-08T19:04:23.420Z,40.00
2019-06-08T19:06:51.842Z,40.00
2019-06-08T19:09:40.929Z,40.30
2019-06-08T19:12:08.706Z,39.70
2019-06-08T19:14:37.774Z,40.30
2019-06-08T19:17:07.554Z,41.20
2019-06-08T19:19:38.527Z,42.40
2019-06-08T19:22:04.636Z,42.50
2019-06-08T19:24:32.517Z,42.90
2019-06-08T19:27:00.665Z,42.60
2019-06-08T19:29:28.253Z,42.80
2019-06-08T19:31:57.212Z,43.10
2019-06-08T19:34:28.214Z,43.40
2019-06-08T19:36:54.612Z,44.00
2019-06-08T19:39:23.566Z,44.30
2019-06-08T19:41:51.049Z,45.00
2019-06-08T19:44:19.427Z,44.90
2019-06-08T19:46:47.565Z,44.90
2019-06-08T19:49:17.286Z,45.20
2019-06-08T19:51:47.697Z,45.40
2019-06-08T19:54:14.260Z,45.20
2019-06-08T19:56:41.938Z,45.40
2019-06-08T19:59:09.605Z,45.90
2019-06-08T20:01:37.947Z,46.10
2019-06-08T20:04:07.372Z,47.20
2019-06-08T20:06:34.705Z,47.20
2019-06-08T20:09:02.514Z,47.60
2019-06-08T20:11:30.240Z,47.60
2019-06-08T20:13:57.743Z,47.20
2019-06-08T20:16:25.180Z,47.00
2019-06-08T20:18:54.347Z,47.40
2019-06-08T20:21:21.816Z,47.70
2019-06-08T20:23:50.818Z,47.60
2019-06-08T20:26:18.902Z,47.40
2019-06-08T20:28:49.709Z,48.90
2019-06-08T20:31:17.885Z,49.90
2019-06-08T20:33:45.856Z,49.90
2019-06-08T20:36:13.398Z,50.00
2019-06-08T20:38:42.697Z,50.50
2019-06-08T20:41:10.172Z,50.50
2019-06-08T20:43:40.856Z,50.10
2019-06-08T20:46:08.123Z,51.40
2019-06-08T20:48:37.762Z,50.40
2019-06-08T20:51:07.816Z,50.70
2019-06-08T20:53:35.199Z,51.40
2019-06-08T20:56:02.728Z,51.40
2019-06-08T20:58:30.206Z,51.80
2019-06-08T21:00:57.781Z,52.60
2019-06-08T21:03:27.836Z,52.90
2019-06-08T21:05:54.922Z,53.10
2019-06-08T21:08:22.743Z,53.30
2019-06-08T21:10:53.818Z,53.60
2019-06-08T21:13:19.455Z,53.90
2019-06-08T21:15:50.643Z,53.70
2019-06-08T21:18:16.058Z,54.10
2019-06-08T21:20:43.395Z,53.60
2019-06-08T21:23:11.141Z,53.50
2019-06-08T21:25:38.506Z,53.00
2019-06-08T21:28:07.822Z,53.10
2019-06-08T21:30:37.522Z,53.80
2019-06-08T21:33:04.456Z,54.20
2019-06-08T21:35:31.954Z,55.00
2019-06-08T21:38:01.143Z,55.30
2019-06-08T21:40:28.613Z,55.80
2019-06-08T21:42:59.876Z,55.80
2019-06-08T21:45:27.623Z,54.90
2019-06-08T21:47:56.003Z,54.80
2019-06-08T21:50:24.499Z,54.80
2019-06-08T21:52:53.102Z,55.30
2019-06-08T21:55:21.115Z,55.70
2019-06-08T21:57:51.131Z,55.30
2019-06-08T22:00:38.624Z,54.90
2019-06-08T22:02:51.757Z,55.80
2019-06-08T22:05:19.316Z,56.50
2019-06-08T22:07:47.227Z,56.30
2019-06-08T22:10:14.681Z,56.60
2019-06-08T22:12:42.107Z,56.40
2019-06-08T22:15:09.846Z,56.60
2019-06-08T22:17:38.360Z,56.90
2019-06-08T22:20:08.043Z,57.10
2019-06-08T22:22:37.636Z,57.40
2019-06-08T22:25:07.906Z,57.80
2019-06-08T22:27:34.727Z,57.90
2019-06-08T22:30:09.594Z,58.00
2019-06-08T22:32:31.745Z,58.40
2019-06-08T22:35:00.192Z,58.90
2019-06-08T22:37:28.418Z,58.90
2019-06-08T22:39:57.848Z,59.10
2019-06-08T22:42:25.060Z,58.90
2019-06-08T22:44:52.824Z,58.60
2019-06-08T22:47:21.726Z,59.10
2019-06-08T22:49:49.112Z,59.20
2019-06-08T22:52:18.616Z,58.90
2019-06-08T22:54:47.668Z,59.40
2019-06-08T22:57:15.195Z,59.50
2019-06-08T22:59:42.538Z,59.40
2019-06-08T23:02:09.990Z,59.40
2019-06-08T23:04:37.302Z,59.70
2019-06-08T23:07:06.422Z,59.80
2019-06-08T23:09:33.879Z,60.20
2019-06-08T23:12:03.531Z,60.40
2019-06-08T23:14:30.430Z,60.50
2019-06-08T23:17:00.611Z,59.80
2019-06-08T23:19:27.137Z,59.60
2019-06-08T23:21:55.215Z,60.00
2019-06-08T23:24:22.687Z,59.70
2019-06-08T23:26:50.075Z,60.30
2019-06-08T23:29:17.938Z,60.00
2019-06-08T23:31:47.760Z,60.40
2019-06-08T23:34:14.527Z,60.40
2019-06-08T23:36:58.528Z,60.60
2019-06-08T23:39:11.057Z,60.50
2019-06-08T23:41:38.393Z,60.50
2019-06-08T23:44:05.738Z,60.80
2019-06-08T23:46:33.096Z,61.20
2019-06-08T23:49:01.947Z,61.50
2019-06-08T23:51:29.640Z,62.10
2019-06-08T23:53:59.681Z,62.10
2019-06-08T23:56:27.716Z,62.30
2019-06-08T23:58:55.198Z,62.50
